Fallon, NV (89406)

9:15 PM PDT on July 03, 2015 (GMT -0700)
Hwy. 50 | | Change Station
CLOSE
Current Station
Personal Weather Station
Location: Fallon, NV
Elevation: 4002 ft
Nearby Weather Stations

Elev 4002 ft 39.49 °N, 118.87 °W | Updated 4 seconds ago

Clear
Clear
83.3 °F
Feels Like 82 °F
N
13.0
Wind Variable Wind from NNW
Gusts 16.0 mph

Today
High -- | Low -- °F
--% Chance of Precip.
Yesterday
High -- | Low -- °F
Precip. -- in
5:32 AM 8:25 PM
Waning Gibbous, 94% visible
Pressure 29.87 in
Visibility 10.0 miles
Clouds Clear
Heat Index 82 °F
Dew Point 51 °F
Humidity 33%
Rainfall 0.00 in
Snow Depth Not available.
UV 0 out of 12
Pollen 4.90 out of 12
Air Quality Not available.
Flu Activity Not available.
METAR KNFL 040356Z AUTO 33006KT 10SM CLR 30/09 A2994 RMK AO2 SLP113 T03000094

More Conditions Fewer Conditions

Pressure 29.87 in
Visibility 10.0 miles
Clouds Clear
Heat Index 82 °F
Dew Point 51 °F
Humidity 33%
Rainfall 0.00 in
Snow Depth Not available.
UV 0 out of 12
Pollen 4.90 out of 12
Air Quality Not available.
Flu Activity Not available.
METAR KNFL 040356Z AUTO 33006KT 10SM CLR 30/09 A2994 RMK AO2 SLP113 T03000094

More Conditions Fewer Conditions

10-Day Weather Forecast

×

Almanac

Astronomy

Jul. 03, 2015 Rise Set
Actual Time
Civil Twilight
Nautical Twilight
Astronomical Twilight
Moon
Length of Visible Light
Length of Day
Tomorrow will be .
, % of the Moon is Illuminated

Today's Extremes

State Highs State Lows

Community

WunderPhotos

Upload Photos

1,834,928 photos uploaded!

WunderBlogs® & News

Nearby

Air Quality

  Air Quality AQ Index Pollutant
Not available.

Snow Depth

Station Depth Elevation

Earthquake Activity

City Distance Mag. Time & Date
Minimum magnitude displayed is 2.5.

Coastal Water Temperatures

Place Temperature

Stations

Nearby Weather Stations

Station Location Temp. Windchill Dew Point Humidity Wind Precip. Elev Updated Type